Flight Track Log - Related Links

Times and Time Zones

All times are in EST time to prevent confusion due to time zone crossing. See the CSN3252 flight status page for this flight to view local times or setup timezone preferences in your user account.

Time Position Orientation Groundspeed Altitude Reporting Facility
EST Latitude Longitude Course Direction KTS MPH feet Rate Location/Type
Sun 11:26:46 PM 31.2310 121.3100 285° West 204 235 1,500  Level FlightAware ADS-B
Sun 11:27:16 PM 31.2170 121.2780 243° Southwest 233 268 3,200 3,000 Climbing FlightAware ADS-B
Sun 11:27:46 PM 31.1900 121.2520 219° Southwest 264 304 4,500 2,880 Climbing FlightAware ADS-B
Sun 11:28:06 PM 31.1710 121.2330 221° Southwest 271 312 5,600 3,300 Climbing FlightAware ADS-B
Sun 11:28:26 PM 31.1510 121.2130 221° Southwest 279 321 6,700 1,375 Climbing FlightAware ADS-B
Sun 11:28:54 PM 31.1290 121.1890 223° Southwest 279 321 6,700 2,264 Level FlightAware ADS-B
Sun 11:29:19 PM 31.1000 121.1600 221° Southwest 284 327 8,700 4,645 Climbing FlightAware ADS-B
Sun 11:29:25 PM 31.0940 121.1540 221° Southwest 284 327 9,100 2,933 Climbing FlightAware ADS-B
Sun 11:30:04 PM 31.0630 121.1060 233° Southwest 289 333 10,900 947 Climbing FlightAware ADS-B
Sun 11:31:19 PM 31.0340 121.0130 250° West 289 333 10,900  Level FlightAware ADS-B
Sun 11:31:56 PM 31.0190 120.9670 249° West 289 333 10,900  Level FlightAware ADS-B
Sun 11:35:00 PM 30.8788 120.6654 242° Southwest  Level Estimated
Sun 11:36:00 PM 30.8330 120.5672 241° Southwest  Level Estimated
Sun 11:37:00 PM 30.7871 120.4691 241° Southwest  Level Estimated
Sun 11:38:00 PM 30.7411 120.3711 241° Southwest  Level Estimated
Sun 11:39:00 PM 30.6950 120.2732 241° Southwest  Level Estimated
Sun 11:40:00 PM 30.6488 120.1754 241° Southwest  Level Estimated
Sun 11:41:00 PM 30.6026 120.0777 241° Southwest  Level Estimated
Sun 11:42:00 PM 30.5563 119.9801 241° Southwest  Level Estimated
Sun 11:43:00 PM 30.5099 119.8826 241° Southwest  Level Estimated
Sun 11:44:00 PM 30.4635 119.7851 241° Southwest  Level Estimated
Sun 11:45:00 PM 30.4170 119.6878 241° Southwest  Level Estimated
Sun 11:46:00 PM 30.3704 119.5906 241° Southwest  Level Estimated
Sun 11:47:00 PM 30.3237 119.4934 241° Southwest  Level Estimated
Sun 11:48:00 PM 30.2770 119.3964 241° Southwest  Level Estimated
Sun 11:49:00 PM 30.2302 119.2994 241° Southwest  Level Estimated
Sun 11:50:00 PM 30.1833 119.2025 241° Southwest  Level Estimated
Sun 11:51:00 PM 30.1364 119.1058 241° Southwest  Level Estimated
Sun 11:52:00 PM 30.0894 119.0091 241° Southwest  Level Estimated
Sun 11:53:00 PM 30.0423 118.9125 241° Southwest  Level Estimated
Sun 11:54:00 PM 29.9951 118.8160 241° Southwest  Level Estimated
Sun 11:55:00 PM 29.9479 118.7196 241° Southwest  Level Estimated
Sun 11:56:00 PM 29.9006 118.6233 240° Southwest  Level Estimated
Sun 11:57:00 PM 29.8532 118.5270 240° Southwest  Level Estimated
Sun 11:58:00 PM 29.8058 118.4309 240° Southwest  Level Estimated
Sun 11:59:00 PM 29.7583 118.3348 240° Southwest  Level Estimated
Mon 12:00:00 AM 29.7107 118.2389 240° Southwest  Level Estimated
Mon 12:01:00 AM 29.6630 118.1430 240° Southwest  Level Estimated
Mon 12:02:00 AM 29.6153 118.0472 240° Southwest  Level Estimated
Mon 12:03:00 AM 29.5676 117.9516 240° Southwest  Level Estimated
Mon 12:04:00 AM 29.5197 117.8560 240° Southwest  Level Estimated
Mon 12:05:00 AM 29.4718 117.7605 240° Southwest  Level Estimated
Mon 12:06:00 AM 29.4238 117.6651 240° Southwest  Level Estimated
Mon 12:07:00 AM 29.3757 117.5697 240° Southwest  Level Estimated
Mon 12:08:00 AM 29.3276 117.4745 240° Southwest  Level Estimated
Mon 12:09:00 AM 29.2794 117.3794 240° Southwest  Level Estimated
Mon 12:10:00 AM 29.2312 117.2843 240° Southwest  Level Estimated
Mon 12:11:00 AM 29.1829 117.1894 240° Southwest  Level Estimated
Mon 12:12:00 AM 29.1345 117.0945 240° Southwest  Level Estimated
Mon 12:13:00 AM 29.0860 116.9997 240° Southwest  Level Estimated
Mon 12:14:00 AM 29.0375 116.9050 240° Southwest  Level Estimated
Mon 12:15:00 AM 28.9889 116.8104 240° Southwest  Level Estimated
Mon 12:16:00 AM 28.9402 116.7159 240° Southwest  Level Estimated
Mon 12:17:00 AM 28.8915 116.6215 240° Southwest  Level Estimated
Mon 12:18:00 AM 28.8427 116.5271 239° Southwest  Level Estimated
Mon 12:19:00 AM 28.7939 116.4329 239° Southwest  Level Estimated
Mon 12:20:00 AM 28.7450 116.3387 239° Southwest  Level Estimated
Mon 12:21:00 AM 28.6960 116.2447 239° Southwest  Level Estimated
Mon 12:22:00 AM 28.6469 116.1507 239° Southwest  Level Estimated
Mon 12:23:00 AM 28.5978 116.0568 239° Southwest  Level Estimated
Mon 12:24:00 AM 28.5486 115.9630 239° Southwest  Level Estimated
Mon 12:25:00 AM 28.4994 115.8692 239° Southwest  Level Estimated
Mon 12:26:00 AM 28.4501 115.7756 239° Southwest  Level Estimated
Mon 12:27:00 AM 28.4007 115.6821 239° Southwest  Level Estimated
Mon 12:28:00 AM 28.3513 115.5886 239° Southwest  Level Estimated
Mon 12:29:00 AM 28.3018 115.4952 239° Southwest  Level Estimated
Mon 12:30:00 AM 28.2522 115.4019 239° Southwest  Level Estimated
Mon 12:31:00 AM 28.2026 115.3087 239° Southwest  Level Estimated
Mon 12:32:00 AM 28.1529 115.2156 239° Southwest  Level Estimated
Mon 12:33:00 AM 28.1031 115.1226 239° Southwest  Level Estimated
Mon 12:34:00 AM 28.0533 115.0297 239° Southwest  Level Estimated
Mon 12:35:00 AM 28.0034 114.9368 239° Southwest  Level Estimated
Mon 12:36:00 AM 27.9535 114.8440 239° Southwest  Level Estimated
Mon 12:37:00 AM 27.9035 114.7514 239° Southwest  Level Estimated
Mon 12:38:00 AM 27.8534 114.6588 239° Southwest  Level Estimated
Mon 12:39:00 AM 27.8033 114.5663 239° Southwest  Level Estimated
Mon 12:40:00 AM 27.7531 114.4738 238° Southwest  Level Estimated
Mon 12:41:00 AM 27.7029 114.3815 238° Southwest  Level Estimated
Mon 12:42:00 AM 27.6525 114.2893 238° Southwest  Level Estimated
Mon 12:43:00 AM 27.6022 114.1971 238° Southwest  Level Estimated
Mon 12:44:00 AM 27.5518 114.1050 238° Southwest  Level Estimated
Mon 12:45:00 AM 27.5013 114.0130 238° Southwest  Level Estimated
Mon 12:46:00 AM 27.4507 113.9211 238° Southwest  Level Estimated
Mon 12:47:00 AM 27.4001 113.8292 238° Southwest  Level Estimated
Mon 12:48:00 AM 27.3494 113.7375 238° Southwest  Level Estimated
Mon 12:49:00 AM 27.2987 113.6458 238° Southwest  Level Estimated
Mon 12:50:00 AM 27.2479 113.5543 238° Southwest  Level Estimated
Mon 12:51:00 AM 27.1971 113.4628 238° Southwest  Level Estimated
Mon 12:52:00 AM 27.1462 113.3713 238° Southwest  Level Estimated
Mon 12:53:00 AM 27.0952 113.2800 238° Southwest  Level Estimated
Mon 12:54:00 AM 27.0441 113.1888 238° Southwest  Level Estimated
Mon 12:55:00 AM 26.9931 113.0976 238° Southwest  Level Estimated
Mon 12:56:00 AM 26.9419 113.0065 238° Southwest  Level Estimated
Mon 12:57:00 AM 26.8907 112.9155 238° Southwest  Level Estimated
Mon 12:58:00 AM 26.8394 112.8246 238° Southwest  Level Estimated
Mon 12:59:00 AM 26.7881 112.7338 238° Southwest  Level Estimated
Mon 01:00:00 AM 26.7367 112.6430 238° Southwest  Level Estimated
Mon 01:01:00 AM 26.6853 112.5524 238° Southwest  Level Estimated
Mon 01:02:00 AM 26.6338 112.4618 238° Southwest  Level Estimated
Mon 01:03:00 AM 26.5823 112.3712 238° Southwest  Level Estimated
Mon 01:04:00 AM 26.5306 112.2808 237° Southwest  Level Estimated
Mon 01:05:00 AM 26.4790 112.1905 237° Southwest  Level Estimated
Mon 01:06:00 AM 26.4272 112.1002 237° Southwest  Level Estimated
Mon 01:07:00 AM 26.3755 112.0100 237° Southwest  Level Estimated
Mon 01:08:00 AM 26.3236 111.9200 237° Southwest  Level Estimated
Mon 01:09:00 AM 26.2717 111.8299 237° Southwest  Level Estimated
Mon 01:10:00 AM 26.2198 111.7400 237° Southwest  Level Estimated
Mon 01:11:00 AM 26.1678 111.6501 237° Southwest  Level Estimated
Mon 01:12:00 AM 26.1157 111.5603 237° Southwest  Level Estimated
Mon 01:13:00 AM 26.0636 111.4706 237° Southwest  Level Estimated
Mon 01:14:00 AM 26.0114 111.3810 237° Southwest  Level Estimated
Mon 01:15:00 AM 25.9592 111.2915 237° Southwest  Level Estimated
Mon 01:16:00 AM 25.9069 111.2020 237° Southwest  Level Estimated
Mon 01:17:00 AM 25.8546 111.1126 237° Southwest  Level Estimated
Mon 01:18:00 AM 25.8022 111.0234 237° Southwest  Level Estimated
Mon 01:19:00 AM 25.7497 110.9341 237° Southwest  Level Estimated
Mon 01:20:00 AM 25.6972 110.8450 237° Southwest  Level Estimated
Mon 01:21:00 AM 25.6447 110.7559 237° Southwest  Level Estimated
Mon 01:22:00 AM 25.5921 110.6669 237° Southwest  Level Estimated
Mon 01:23:00 AM 25.5394 110.5780 237° Southwest  Level Estimated
Mon 01:24:00 AM 25.4867 110.4892 237° Southwest  Level Estimated
Mon 01:25:00 AM 25.4339 110.4005 237° Southwest  Level Estimated
Mon 01:26:00 AM 25.3811 110.3118 237° Southwest  Level Estimated
Mon 01:27:00 AM 25.3282 110.2232 237° Southwest  Level Estimated
Mon 01:28:00 AM 25.2753 110.1347 237° Southwest  Level Estimated
Mon 01:29:00 AM 25.2223 110.0462 237° Southwest  Level Estimated
Mon 01:30:00 AM 25.2181 110.0392 236° Southwest  Level Estimated
Mon 01:31:00 AM 25.2181 110.0392 214° Southwest  Level Estimated
Mon 01:32:00 AM 25.2181 110.0392 214° Southwest  Level Estimated
Mon 01:33:00 AM 25.2181 110.0392 214° Southwest  Level Estimated
Mon 01:34:00 AM 25.2181 110.0392 214° Southwest  Level Estimated
Mon 01:35:00 AM 25.2181 110.0392 214° Southwest  Level Estimated
Mon 01:36:00 AM 25.2181 110.0392 214° Southwest  Level Estimated
Mon 01:37:00 AM 25.2181 110.0392 214° Southwest  Level Estimated
Mon 01:38:00 AM 25.2181 110.0392 214° Southwest  Level Estimated
Mon 01:39:00 AM 25.2181 110.0392 214° Southwest  Level Estimated
Mon 01:40:00 AM 25.2181 110.0392 214° Southwest  Level Estimated
Mon 01:41:00 AM 25.2181 110.0392 214° Southwest  Level Estimated
Mon 01:42:00 AM 25.2181 110.0392 214° Southwest  Level Estimated

Login

Don't have an account? Register now (free) for customized features, flight alerts, and more!